Latest Weather Observations for Cape Grim

IDT60801

Issued at 11:02 pm EDT Saturday 28 February 2015 (issued every 30 minutes, with the page automatically refreshed every 10 minutes)

About weather observations | Map of weather stations | Latest weather observations for TAS | Other Formats
Station Details ID: 091331 Name: CAPE GRIM Lat: -40.68 Lon: 144.69 Height: 86.0 m
Data from the previous 72 hours. | See also: Recent months at Cape Grim
Date/Time
EDT
Temp
°C
App
Temp
°C
Dew
Point
Rel
Hum
%
Delta-T
°C
Wind Press
QNH
hPa
Press
MSL
hPa
Rain
since 9 am
mm
Dir
 
Spd
km/h
Gust
km/h
Spd
kts
Gust
kts
28/11:00pm 15.7 8.8 11.7 77 2.2 SW 39 48 21 26 1004.7 1004.6 0.6
28/10:30pm 16.2 12.3 12.2 77 2.2 SW 24 44 13 24 1004.3 1004.2 0.6
28/10:02pm 16.2 11.7 12.7 80 1.9 WSW 28 46 15 25 1004.1 1004.0 0.6
28/10:00pm 16.1 11.2 12.7 80 1.9 WSW 30 46 16 25 1004.1 1004.0 0.6
28/09:40pm 16.2 11.9 13.3 83 1.6 WSW 28 46 15 25 1003.9 1003.8 0.6
28/09:37pm 16.2 12.7 13.3 83 1.6 WSW 24 46 13 25 1003.8 1003.7 0.6
28/09:30pm 16.0 12.5 13.3 84 1.5 WSW 24 44 13 24 1003.9 1003.8 0.6
28/09:00pm 16.2 12.6 14.2 88 1.1 WSW 26 46 14 25 1003.2 1003.1 0.6
28/08:56pm 16.5 12.7 14.7 89 1.0 WSW 28 46 15 25 1003.1 1003.0 0.6
28/08:53pm 16.7 13.3 14.7 88 1.2 WSW 26 46 14 25 1003.0 1002.9 0.6
28/08:30pm 16.7 13.8 15.1 90 0.9 WSW 24 37 13 20 1002.3 1002.2 0.6
28/08:19pm 16.5 13.9 14.9 90 0.9 WSW 22 44 12 24 1002.2 1002.1 0.6
28/08:00pm 16.9 14.9 15.6 92 0.8 WSW 20 41 11 22 1001.5 1001.3 0.6
28/07:30pm 16.7 13.8 15.2 91 0.9 WSW 24 35 13 19 1001.2 1001.0 0.6
28/07:00pm 17.6 15.5 16.1 91 0.9 W 22 32 12 17 1000.7 1000.5 0.4
28/06:30pm 17.8 14.6 16.3 91 0.9 W 28 35 15 19 1001.0 1000.8 0.4
28/06:07pm 18.2 14.7 16.4 89 1.1 WNW 30 39 16 21 1001.0 1000.8 0.2
28/06:00pm 18.0 14.8 16.2 89 1.1 WNW 28 37 15 20 1001.0 1000.9 0.0
28/05:38pm 18.2 14.9 16.0 87 1.3 WNW 28 32 15 17 1000.9 1000.7 0.0
28/05:30pm 18.5 15.2 16.1 86 1.4 WNW 28 35 15 19 1001.0 1000.8 0.0
28/05:00pm 18.9 14.7 16.3 85 1.6 WNW 33 43 18 23 1001.2 1001.0 0.0
28/04:41pm 19.2 14.6 16.2 83 1.8 WNW 35 44 19 24 1001.3 1001.1 0.0
28/04:30pm 19.4 14.4 16.1 81 2.0 WNW 37 54 20 29 1001.3 1001.1 0.0
28/04:13pm 19.6 15.1 16.4 82 1.9 NW 35 54 19 29 1001.3 1001.1 0.0
28/04:00pm 19.2 15.0 16.2 83 1.8 NW 33 44 18 24 1001.5 1001.3 0.0
28/03:30pm 20.0 15.8 16.2 79 2.3 NW 33 46 18 25 1001.6 1001.4 0.0
28/03:07pm 20.0 15.4 16.0 78 2.4 WNW 35 54 19 29 1001.6 1001.4 0.0
28/03:00pm 19.7 15.6 16.0 79 2.2 NW 32 43 17 23 1001.7 1001.5 0.0
28/02:30pm 20.7 16.1 16.1 75 2.8 WNW 35 44 19 24 1001.9 1001.7 0.0
28/02:00pm 19.5 16.5 16.7 84 1.7 NNW 28 43 15 23 1001.9 1001.7 0.0
28/01:30pm 18.9 16.2 16.5 86 1.5 N 26 33 14 18 1002.3 1002.2 0.0
28/01:00pm 18.4 15.5 16.2 87 1.3 NNE 26 32 14 17 1002.7 1002.6 0.0
28/12:30pm 18.2 15.0 16.2 88 1.2 NE 28 33 15 18 1003.3 1003.2 0.0
28/11:30am 17.2 13.6 15.2 88 1.2 NE 28 35 15 19 1004.1 1004.0 0.0
28/11:00am 17.3 13.5 14.8 85 1.5 NE 28 33 15 18 1004.1 1004.0 0.0
28/10:30am 17.0 12.3 14.3 84 1.5 NE 32 37 17 20 1004.2 1004.1 0.0
28/10:00am 16.5 12.3 13.6 83 1.6 NE 28 35 15 19 1004.6 1004.5 0.0
28/09:30am 16.4 11.6 12.9 80 2.0 NE 30 37 16 20 1004.9 1004.8 0.0
28/09:00am 15.9 10.5 12.3 79 2.0 NE 32 35 17 19 1005.0 1004.9 0.0
28/08:30am 15.7 10.8 12.6 82 1.7 NE 30 37 16 20 1004.8 1004.7 0.0
28/08:00am 15.2 10.1 11.8 80 1.9 NE 30 35 16 19 1004.6 1004.5 0.0
28/07:30am 15.4 10.6 11.6 78 2.1 NNE 28 33 15 18 1004.8 1004.7 0.0
28/06:30am 14.2 10.3 10.8 80 1.8 NNE 22 26 12 14 1005.4 1005.3 0.0
28/05:30am 12.3 7.9 9.0 80 1.7 NE 22 24 12 13 1005.4 1005.3 0.0
28/05:00am 10.8 7.3 7.1 78 1.8 ENE 15 17 8 9 1005.9 1005.7 0.0
28/04:30am 10.9 7.2 6.5 74 2.1 ENE 15 15 8 8 1006.7 1006.5 0.0
28/04:00am 11.1 7.6 5.6 69 2.6 ENE 13 13 7 7 1007.1 1006.9 0.0
28/03:30am 10.9 7.5 5.7 70 2.4 ESE 13 15 7 8 1007.3 1007.1 0.0
28/03:00am 11.2 8.3 6.3 72 2.3 ESE 11 15 6 8 1007.8 1007.6 0.0
28/02:30am 11.6 9.0 6.1 69 2.6 SE 9 11 5 6 1008.1 1007.9 0.0
28/02:00am 12.5 10.5 7.2 70 2.6 SSE 7 9 4 5 1008.7 1008.5 0.0
28/01:30am 12.2 10.2 6.9 70 2.5 SSE 7 9 4 5 1009.0 1008.8 0.0
28/01:00am 12.3 9.9 6.8 69 2.6 S 9 11 5 6 1009.6 1009.4 0.0
28/12:30am 12.2 10.1 6.5 68 2.7 S 7 11 4 6 1009.9 1009.7 0.0
 
Date/Time
EDT
Temp
°C
App
Temp
°C
Dew
Point
Rel
Hum
%
Delta-T
°C
Wind Press
QNH
hPa
Press
MSL
hPa
Rain
since 9 am
mm
Dir
 
Spd
km/h
Gust
km/h
Spd
kts
Gust
kts
27/11:30pm 12.5 10.1 7.0 69 2.7 SSE 9 13 5 7 1010.1 1009.9 0.0
27/11:00pm 12.7 9.6 7.2 69 2.7 SSE 13 17 7 9 1010.3 1010.1 0.0
27/10:30pm 13.9 9.8 7.7 66 3.1 SW 19 26 10 14 1010.9 1010.7 0.0
27/10:00pm 14.0 9.7 8.0 67 3.0 SSW 20 28 11 15 1010.9 1010.7 0.0
27/09:30pm 14.1 9.5 8.3 68 2.9 SSW 22 32 12 17 1010.9 1010.7 0.0
27/09:00pm 14.1 9.8 7.9 66 3.1 SW 20 28 11 15 1010.8 1010.6 0.0
27/08:30pm 14.1 8.4 6.9 62 3.5 SW 26 35 14 19 1010.5 1010.3 0.0
27/08:00pm 14.0 8.4 7.1 63 3.4 SW 26 35 14 19 1010.5 1010.3 0.0
27/07:30pm 14.7 8.0 7.5 62 3.6 SW 32 39 17 21 1010.5 1010.3 0.0
27/07:00pm 14.6 7.9 7.2 61 3.7 SW 32 41 17 22 1010.1 1009.9 0.0
27/06:30pm 15.5 9.3 8.0 61 3.8 SW 30 41 16 22 1010.1 1009.9 0.0
27/06:00pm 15.4 9.2 7.9 61 3.8 SW 30 41 16 22 1010.2 1010.0 0.0
27/05:30pm 15.1 9.0 8.3 64 3.4 SW 30 39 16 21 1010.4 1010.2 0.0
27/05:00pm 15.6 9.4 7.9 60 3.9 SW 30 41 16 22 1010.2 1010.0 0.0
27/04:30pm 16.1 10.0 8.3 60 4.0 SW 30 37 16 20 1010.1 1009.9 0.0
27/04:00pm 15.2 10.4 7.5 60 3.8 SW 22 30 12 16 1010.0 1009.8 0.0
27/03:30pm 14.8 9.3 7.4 61 3.7 SW 26 35 14 19 1010.6 1010.4 0.0
27/03:00pm 15.0 9.4 7.3 60 3.8 SW 26 32 14 17 1010.9 1010.7 0.0
27/02:30pm 15.2 10.0 7.2 59 4.0 SW 24 35 13 19 1011.0 1010.8 0.0
27/02:00pm 15.1 10.4 7.6 61 3.7 SW 22 33 12 18 1010.8 1010.6 0.0
27/01:30pm 14.8 9.3 7.4 61 3.7 SW 26 35 14 19 1011.0 1010.8 0.0
27/01:00pm 15.6 10.9 7.9 60 3.9 SW 22 33 12 18 1011.2 1011.0 0.0
27/12:30pm 16.5 12.0 8.7 60 4.0 SW 22 32 12 17 1011.4 1011.2 0.0
27/12:00pm 15.8 11.9 8.8 63 3.6 SW 19 28 10 15 1011.2 1011.0 0.0
27/11:30am 15.7 11.1 8.0 60 3.9 SW 22 30 12 16 1011.5 1011.3 0.0
27/11:00am 16.0 11.8 8.2 60 4.0 SW 20 30 11 16 1011.6 1011.4 0.0
27/10:30am 16.1 13.4 9.1 63 3.6 SW 13 17 7 9 1011.4 1011.2 0.0
27/10:00am 15.5 12.3 8.5 63 3.6 SSW 15 20 8 11 1011.5 1011.3 0.0
27/09:30am 14.7 11.4 8.0 64 3.4 SSW 15 20 8 11 1011.5 1011.3 0.0
27/09:00am 14.7 11.5 8.4 66 3.2 SSE 15 19 8 10 1011.3 1011.1 0.0
27/08:30am 14.4 9.1 7.0 61 3.6 SW 24 32 13 17 1011.2 1011.0 0.0
27/08:00am 13.7 8.8 6.8 63 3.4 SW 22 33 12 18 1010.9 1010.7 0.0
27/07:30am 11.9 8.8 7.4 74 2.2 SSE 13 17 7 9 1010.4 1010.2 0.0
27/07:00am 11.4 8.5 6.7 73 2.2 SSE 11 17 6 9 1010.2 1010.0 0.0
27/06:30am 11.5 8.7 7.0 74 2.2 SSE 11 15 6 8 1010.2 1010.0 0.0
27/06:00am 12.2 9.8 6.9 70 2.6 SSE 9 13 5 7 1010.2 1010.0 0.0
27/05:30am 13.3 8.0 6.6 64 3.2 SW 24 33 13 18 1010.6 1010.4 0.0
27/05:00am 13.0 8.4 6.4 64 3.2 SW 20 28 11 15 1010.5 1010.3 0.0
27/04:30am 13.0 8.0 6.4 64 3.2 SW 22 30 12 16 1010.5 1010.3 0.0
27/04:00am 13.2 8.3 7.0 66 3.0 SW 22 30 12 16 1010.5 1010.3 0.0
27/03:30am 13.2 8.7 7.0 66 3.0 SW 20 30 11 16 1010.5 1010.3 0.0
27/03:00am 13.2 8.8 7.2 67 2.9 SW 20 26 11 14 1010.4 1010.2 0.0
27/02:30am 12.1 9.6 8.2 77 1.9 S 11 17 6 9 1010.6 1010.4 0.0
27/02:00am 12.0 9.1 8.1 77 1.9 S 13 19 7 10 1011.0 1010.8 0.0
27/01:30am 12.4 9.5 8.1 75 2.1 S 13 19 7 10 1011.2 1011.0 0.0
27/01:00am 13.5 9.3 8.4 71 2.6 SW 20 26 11 14 1011.2 1011.0 0.0
27/12:30am 12.7 9.3 9.0 78 1.9 S 17 24 9 13 1011.2 1011.0 0.0
27/12:00am 12.8 9.8 9.3 79 1.8 S 15 20 8 11 1011.2 1011.0 0.0
 
Date/Time
EDT
Temp
°C
App
Temp
°C
Dew
Point
Rel
Hum
%
Delta-T
°C
Wind Press
QNH
hPa
Press
MSL
hPa
Rain
since 9 am
mm
Dir
 
Spd
km/h
Gust
km/h
Spd
kts
Gust
kts
26/11:30pm 13.1 9.5 9.9 81 1.7 S 19 24 10 13 1011.3 1011.1 0.0
26/11:00pm 13.5 10.1 10.5 82 1.6 S 19 28 10 15 1011.4 1011.2 0.0
26/10:30pm 14.2 10.0 11.2 82 1.6 S 24 32 13 17 1011.4 1011.2 0.0
26/10:00pm 14.6 9.0 11.4 81 1.7 SSW 32 43 17 23 1011.2 1011.0 0.0
26/09:30pm 15.1 10.8 12.1 82 1.6 SW 26 35 14 19 1011.2 1011.0 0.0
26/09:00pm 15.2 11.3 12.1 82 1.7 SW 24 32 13 17 1010.6 1010.4 0.0
26/08:30pm 15.5 11.5 11.9 79 2.0 SSW 24 30 13 16 1010.0 1009.8 0.0
26/08:00pm 15.5 12.4 12.1 80 1.9 SSW 20 28 11 15 1009.5 1009.3 0.0
26/07:30pm 15.9 11.0 12.5 80 1.9 SSW 30 37 16 20 1009.3 1009.1 0.0
26/07:00pm 16.4 11.4 13.3 82 1.7 SSW 32 43 17 23 1009.2 1009.0 0.0
26/06:30pm 17.2 12.9 13.3 78 2.2 SSW 28 35 15 19 1009.0 1008.8 0.0
26/06:00pm 17.2 12.4 13.9 81 1.9 SW 32 43 17 23 1008.8 1008.6 0.0
26/05:30pm 17.6 14.0 14.1 80 2.0 SW 26 37 14 20 1008.8 1008.6 0.0
26/05:11pm 17.7 14.3 14.8 83 1.7 SW 26 35 14 19 1008.7 1008.5 0.0
26/05:00pm 17.5 14.0 14.4 82 1.8 SW 26 35 14 19 1008.8 1008.6 0.0
26/04:30pm 17.4 14.1 14.9 85 1.5 SW 26 35 14 19 1008.8 1008.6 0.0
26/04:03pm 17.9 16.0 15.3 85 1.5 WSW 19 35 10 19 1008.7 1008.5 0.0
26/04:00pm 18.0 16.0 15.6 86 1.4 WSW 20 35 11 19 1008.8 1008.6 0.0
26/03:52pm 17.8 16.0 15.4 86 1.4 WSW 19 30 10 16 1008.9 1008.7 0.0
26/03:30pm 17.3 15.2 14.8 85 1.5 WSW 19 33 10 18 1009.1 1008.9 0.0
26/03:23pm 17.5 15.7 14.4 82 1.8 WSW 17 32 9 17 1009.2 1009.0 0.0
26/03:00pm 18.1 16.4 14.8 81 1.9 W 17 32 9 17 1009.4 1009.2 0.0
26/02:49pm 18.2 16.6 14.9 81 1.9 WSW 17 32 9 17 1009.4 1009.2 0.0
26/02:30pm 17.9 15.7 14.8 82 1.8 WSW 20 33 11 18 1009.5 1009.3 0.0
26/02:12pm 17.9 16.1 14.4 80 2.0 WSW 17 30 9 16 1009.6 1009.4 0.0
26/02:00pm 18.1 15.5 14.8 81 1.9 SW 22 35 12 19 1009.6 1009.4 0.0
26/01:56pm 17.6 14.8 14.3 81 1.9 WSW 22 35 12 19 1009.6 1009.4 0.0
26/01:30pm 17.3 13.6 14.0 81 1.9 SW 26 39 14 21 1009.7 1009.5 0.0
26/01:00pm 18.0 14.4 14.1 78 2.2 SW 26 43 14 23 1009.7 1009.5 0.0
26/12:30pm 17.7 13.6 13.8 78 2.2 SW 28 41 15 22 1009.6 1009.4 0.0
26/12:27pm 17.8 13.4 14.1 79 2.1 SW 30 41 16 22 1009.6 1009.4 0.0
26/12:00pm 18.0 13.1 13.7 76 2.5 SW 32 43 17 23 1009.7 1009.5 0.0
26/11:56am 18.5 13.9 14.6 78 2.3 SW 32 43 17 23 1009.7 1009.5 0.0
26/11:33am 17.6 12.5 13.7 78 2.2 SW 33 44 18 24 1009.7 1009.5 0.0
26/11:30am 17.5 11.9 13.2 76 2.4 SW 35 44 19 24 1009.8 1009.6 0.0
26/11:00am 17.7 12.8 13.6 77 2.3 SW 32 43 17 23 1009.8 1009.6 0.0
26/10:30am 17.5 13.1 14.2 81 1.9 SW 30 41 16 22 1009.8 1009.6 0.0
26/10:00am 17.3 13.8 14.6 84 1.6 WSW 26 43 14 23 1009.6 1009.4 0.0
26/09:48am 17.7 15.2 15.1 85 1.5 SW 22 39 12 21 1009.5 1009.3 0.0
26/09:30am 17.6 15.6 15.4 87 1.3 WSW 20 33 11 18 1009.4 1009.2 0.0
26/09:00am 17.1 15.0 15.1 88 1.2 W 20 32 11 17 1009.2 1009.0 0.0
26/08:30am 17.4 15.6 15.4 88 1.2 W 19 26 10 14 1008.8 1008.6 0.0
26/08:00am 17.3 15.4 15.3 88 1.2 WNW 19 24 10 13 1008.8 1008.6 0.0
26/07:30am 17.3 15.5 15.5 89 1.1 NW 19 22 10 12 1008.7 1008.5 0.0
26/07:00am 16.9 16.5 15.1 89 1.0 N 11 15 6 8 1008.6 1008.4 0.0
26/06:30am 16.8 16.0 15.0 89 1.0 N 13 17 7 9 1008.7 1008.5 0.0
26/06:00am 16.7 15.5 15.1 90 0.9 NNE 15 17 8 9 1008.5 1008.3 0.0
26/05:30am 16.5 14.9 14.9 90 0.9 NNE 17 22 9 12 1008.3 1008.1 0.0
26/05:00am 16.4 14.1 14.6 89 1.0 NE 20 24 11 13 1008.2 1008.0 0.0
26/04:30am 16.9 15.2 14.7 87 1.3 NE 17 20 9 11 1008.6 1008.4 0.0
26/04:00am 17.1 13.6 14.6 85 1.4 NE 26 32 14 17 1008.3 1008.1 0.0
26/03:30am 17.0 13.4 14.3 84 1.5 NE 26 33 14 18 1008.5 1008.3 0.0
26/03:00am 17.0 14.6 14.5 85 1.4 NE 20 26 11 14 1009.6 1009.4 0.0
26/02:30am 17.2 14.2 14.7 85 1.4 NE 24 30 13 16 1009.9 1009.7 0.0
26/02:00am 17.2 14.1 14.5 84 1.6 NE 24 32 13 17 1010.3 1010.1 0.0
26/01:30am 17.2 13.3 14.3 83 1.7 NE 28 33 15 18 1010.9 1010.7 0.0
26/01:00am 17.2 13.2 14.1 82 1.8 NE 28 37 15 20 1010.8 1010.6 0.0
26/12:30am 17.2 13.1 13.9 81 1.9 NE 28 39 15 21 1011.4 1011.2 0.0
26/12:00am 17.2 12.0 13.5 79 2.1 NE 33 41 18 22 1011.7 1011.5 0.0
 
Date/Time
EDT
Temp
°C
App
Temp
°C
Dew
Point
Rel
Hum
%
Delta-T
°C
Wind Press
QNH
hPa
Press
MSL
hPa
Rain
since 9 am
mm
Dir
 
Spd
km/h
Gust
km/h
Spd
kts
Gust
kts
25/11:30pm 16.7 12.0 13.2 80 2.0 ENE 30 39 16 21 1011.9 1011.7 0.0

Other Formats:

Comma delimited format used in spreadsheet applications
http://www.bom.gov.au/fwo/IDT60801/IDT60801.95954.axf

JavaScript Object Notation format (JSON) in row-major order
http://www.bom.gov.au/fwo/IDT60801/IDT60801.95954.json